Time;durP1;ratioP1;P1;durP2;ratioP2;P2;SDS_P1;SDS_P2;PMS_P1;PMS_P2;Temp;Humidity;BMP_temperature;BMP_pressure;BME280_temperature;BME280_humidity;BME280_pressure;Samples;Min_cycle;Max_cycle;Signal;HPM_P1;HPM_P2
2023/11/08 00:01:14;;;;;;;7.18;2.35;;;;;;;;;;5105243;28;20080;-44
2023/11/08 00:03:42;;;;;;;6.75;2.35;;;;;;;;;;5105029;28;20027;-43
2023/11/08 00:06:09;;;;;;;6.35;2.15;;;;;;;;;;5105696;28;20177;-43
2023/11/08 00:08:35;;;;;;;6.90;2.13;;;;;;;;;;5105241;28;20219;-43
2023/11/08 00:11:03;;;;;;;6.50;2.22;;;;;;;;;;5105568;28;20032;-43
2023/11/08 00:13:30;;;;;;;4.38;2.05;;;;;;;;;;5105457;28;20042;-43
2023/11/08 00:15:57;;;;;;;8.60;2.00;;;;;;;;;;5105283;28;20020;-43
2023/11/08 00:18:25;;;;;;;8.93;2.20;;;;;;;;;;5105303;28;20315;-44
2023/11/08 00:20:51;;;;;;;9.25;2.20;;;;;;;;;;5105284;28;20103;-43
2023/11/08 00:23:18;;;;;;;3.97;2.13;;;;;;;;;;5105176;28;20297;-43
2023/11/08 00:25:45;;;;;;;4.82;2.40;;;;;;;;;;5105171;28;20205;-44
2023/11/08 00:28:11;;;;;;;4.80;2.45;;;;;;;;;;5104989;28;20035;-43
2023/11/08 00:30:38;;;;;;;4.82;2.85;;;;;;;;;;5105040;28;20012;-43
2023/11/08 00:33:06;;;;;;;5.72;2.42;;;;;;;;;;5104943;28;20019;-44
2023/11/08 00:35:33;;;;;;;4.13;2.10;;;;;;;;;;5105272;28;20196;-43
2023/11/08 00:37:59;;;;;;;3.15;2.10;;;;;;;;;;5104821;28;20195;-43
2023/11/08 00:40:26;;;;;;;3.92;2.20;;;;;;;;;;5104983;28;20040;-46
2023/11/08 00:42:52;;;;;;;4.35;2.38;;;;;;;;;;5104913;28;20036;-43
2023/11/08 00:45:19;;;;;;;5.13;2.35;;;;;;;;;;5104712;28;20095;-47
2023/11/08 00:47:50;;;;;;;5.15;2.13;;;;;;;;;;5104663;28;20065;-43
2023/11/08 00:50:16;;;;;;;8.60;2.50;;;;;;;;;;5102595;28;20058;-43
2023/11/08 00:52:43;;;;;;;7.75;2.63;;;;;;;;;;5095522;28;20055;-49
2023/11/08 00:55:10;;;;;;;5.30;2.25;;;;;;;;;;5084580;28;20066;-42
2023/11/08 00:57:37;;;;;;;3.65;2.10;;;;;;;;;;5101477;28;20028;-42
2023/11/08 01:00:07;;;;;;;5.38;2.42;;;;;;;;;;5096137;28;20032;-47
2023/11/08 01:02:34;;;;;;;6.38;2.20;;;;;;;;;;5084119;28;20016;-52
2023/11/08 01:05:01;;;;;;;4.28;2.53;;;;;;;;;;5084544;28;20334;-42
2023/11/08 01:07:27;;;;;;;6.93;2.90;;;;;;;;;;5084244;28;20247;-42
2023/11/08 01:09:54;;;;;;;8.93;2.80;;;;;;;;;;5084381;28;20040;-40
2023/11/08 01:12:20;;;;;;;8.98;2.97;;;;;;;;;;5084115;28;20033;-51
2023/11/08 01:14:47;;;;;;;6.00;3.33;;;;;;;;;;5088021;28;20185;-50
2023/11/08 01:17:14;;;;;;;6.13;3.30;;;;;;;;;;5098203;28;20200;-39
2023/11/08 01:19:41;;;;;;;4.88;3.40;;;;;;;;;;5094521;28;20032;-41
2023/11/08 01:22:09;;;;;;;5.68;3.92;;;;;;;;;;5093937;28;20035;-52
2023/11/08 01:24:36;;;;;;;8.38;4.00;;;;;;;;;;5096929;28;20074;-50
2023/11/08 01:27:03;;;;;;;6.47;5.40;;;;;;;;;;5095459;28;20028;-48
2023/11/08 01:29:30;;;;;;;12.95;7.00;;;;;;;;;;5099348;28;20035;-42
2023/11/08 01:31:57;;;;;;;11.18;7.47;;;;;;;;;;5095991;28;20330;-46
2023/11/08 01:34:24;;;;;;;13.02;8.20;;;;;;;;;;5098770;28;20040;-43
2023/11/08 01:36:50;;;;;;;12.23;8.95;;;;;;;;;;5098702;28;20020;-51
2023/11/08 01:39:20;;;;;;;11.90;8.50;;;;;;;;;;5094642;28;20098;-45
2023/11/08 01:41:50;;;;;;;12.93;7.47;;;;;;;;;;5094532;28;20084;-42
2023/11/08 01:44:21;;;;;;;12.02;6.70;;;;;;;;;;5093661;28;20024;-42
2023/11/08 01:46:49;;;;;;;9.85;6.20;;;;;;;;;;5084506;28;20388;-43
2023/11/08 01:49:16;;;;;;;8.27;5.40;;;;;;;;;;5093266;28;20100;-50
2023/11/08 01:51:43;;;;;;;13.50;5.35;;;;;;;;;;5094979;28;20032;-47
2023/11/08 01:54:10;;;;;;;9.77;5.18;;;;;;;;;;5083520;28;20037;-42
2023/11/08 01:56:37;;;;;;;11.07;4.25;;;;;;;;;;5082795;28;20043;-41
2023/11/08 01:59:04;;;;;;;5.35;3.53;;;;;;;;;;5083909;28;20107;-43
2023/11/08 02:01:32;;;;;;;8.07;3.42;;;;;;;;;;5083520;28;20339;-49
2023/11/08 02:03:59;;;;;;;7.93;3.65;;;;;;;;;;5083824;28;20040;-43
2023/11/08 02:06:26;;;;;;;6.43;3.08;;;;;;;;;;5083591;28;20088;-43
2023/11/08 02:08:54;;;;;;;4.38;3.00;;;;;;;;;;5083780;28;20040;-44
2023/11/08 02:11:22;;;;;;;5.93;2.90;;;;;;;;;;5083718;28;20036;-44
2023/11/08 02:13:50;;;;;;;6.40;2.58;;;;;;;;;;5089259;28;20027;-44
2023/11/08 02:16:16;;;;;;;4.72;2.22;;;;;;;;;;5096723;28;20043;-43
2023/11/08 02:18:43;;;;;;;6.00;2.25;;;;;;;;;;5087918;28;20095;-42
2023/11/08 02:21:14;;;;;;;6.07;2.17;;;;;;;;;;5095247;28;20065;-43
2023/11/08 02:23:41;;;;;;;3.60;2.20;;;;;;;;;;5090383;28;20071;-44
2023/11/08 02:26:07;;;;;;;4.65;1.85;;;;;;;;;;5088315;28;20021;-42
2023/11/08 02:28:35;;;;;;;4.85;2.03;;;;;;;;;;5087372;28;20304;-57
2023/11/08 02:31:03;;;;;;;2.58;1.77;;;;;;;;;;5087259;28;20094;-52
2023/11/08 02:33:29;;;;;;;8.95;2.00;;;;;;;;;;5087192;28;20052;-42
2023/11/08 02:35:59;;;;;;;5.47;2.08;;;;;;;;;;5096043;28;20031;-44
2023/11/08 02:38:25;;;;;;;5.30;1.80;;;;;;;;;;5097529;28;20024;-45
2023/11/08 02:40:52;;;;;;;4.32;1.85;;;;;;;;;;5099209;28;20034;-45
2023/11/08 02:43:19;;;;;;;4.22;1.70;;;;;;;;;;5086802;28;20021;-50
2023/11/08 02:45:46;;;;;;;4.13;1.45;;;;;;;;;;5086901;28;20048;-44
2023/11/08 02:48:13;;;;;;;6.03;1.95;;;;;;;;;;5086784;28;20316;-43
2023/11/08 02:50:40;;;;;;;3.55;1.60;;;;;;;;;;5086529;28;20047;-44
2023/11/08 02:53:07;;;;;;;4.38;1.83;;;;;;;;;;5089600;28;20334;-44
2023/11/08 02:55:37;;;;;;;4.75;1.70;;;;;;;;;;5095575;28;20036;-44
2023/11/08 02:58:03;;;;;;;4.22;1.85;;;;;;;;;;5091398;28;20024;-44
2023/11/08 03:00:30;;;;;;;4.35;1.67;;;;;;;;;;5092604;28;20316;-44
2023/11/08 03:02:57;;;;;;;4.00;1.83;;;;;;;;;;5101444;28;20332;-44
2023/11/08 03:05:24;;;;;;;4.65;1.55;;;;;;;;;;5104516;28;20043;-44
2023/11/08 03:07:53;;;;;;;4.90;1.52;;;;;;;;;;5100744;28;20446;-44
2023/11/08 03:10:21;;;;;;;2.28;1.40;;;;;;;;;;5103726;28;20041;-52
2023/11/08 03:12:50;;;;;;;8.57;1.70;;;;;;;;;;5100360;28;20298;-43
2023/11/08 03:15:17;;;;;;;5.45;1.67;;;;;;;;;;5099844;28;20100;-44
2023/11/08 03:17:45;;;;;;;5.38;1.50;;;;;;;;;;5106557;28;20280;-49
2023/11/08 03:20:13;;;;;;;3.30;1.40;;;;;;;;;;5106751;28;20028;-47
2023/11/08 03:22:39;;;;;;;5.70;1.52;;;;;;;;;;5106423;28;20031;-44
2023/11/08 03:25:07;;;;;;;5.85;1.67;;;;;;;;;;5106326;28;20040;-46
2023/11/08 03:27:33;;;;;;;6.82;1.60;;;;;;;;;;5106188;28;20188;-44
2023/11/08 03:30:00;;;;;;;6.88;2.05;;;;;;;;;;5106767;28;20043;-44
2023/11/08 03:32:27;;;;;;;4.63;1.52;;;;;;;;;;5105382;28;20315;-44
2023/11/08 03:34:58;;;;;;;6.43;1.42;;;;;;;;;;5097537;28;20133;-45
2023/11/08 03:37:24;;;;;;;3.65;1.20;;;;;;;;;;5086089;28;20027;-45
2023/11/08 03:39:51;;;;;;;2.88;1.15;;;;;;;;;;5086183;28;20228;-44
2023/11/08 03:42:18;;;;;;;5.35;1.55;;;;;;;;;;5085619;28;20020;-45
2023/11/08 03:44:44;;;;;;;3.20;1.58;;;;;;;;;;5086220;28;20034;-44
2023/11/08 03:47:11;;;;;;;4.10;1.30;;;;;;;;;;5086014;28;20070;-48
2023/11/08 03:49:37;;;;;;;4.60;1.30;;;;;;;;;;5096586;28;20067;-44
2023/11/08 03:52:04;;;;;;;2.75;1.42;;;;;;;;;;5085737;28;20045;-49
2023/11/08 03:54:31;;;;;;;4.85;1.33;;;;;;;;;;5085962;28;20058;-45
2023/11/08 03:56:57;;;;;;;6.85;1.40;;;;;;;;;;5085468;28;20021;-44
2023/11/08 03:59:24;;;;;;;5.10;1.40;;;;;;;;;;5085607;28;20037;-44
2023/11/08 04:01:50;;;;;;;5.03;1.50;;;;;;;;;;5085436;28;20328;-51
2023/11/08 04:04:17;;;;;;;5.20;1.60;;;;;;;;;;5085613;28;20297;-48
2023/11/08 04:06:43;;;;;;;4.35;1.20;;;;;;;;;;5085213;28;20090;-44
2023/11/08 04:09:10;;;;;;;7.82;1.45;;;;;;;;;;5085530;28;20071;-45
2023/11/08 04:11:37;;;;;;;4.68;1.27;;;;;;;;;;5085175;28;20024;-45
2023/11/08 04:14:03;;;;;;;3.58;1.20;;;;;;;;;;5085095;28;20036;-44
2023/11/08 04:16:31;;;;;;;3.55;1.25;;;;;;;;;;5085176;28;20033;-45
2023/11/08 04:18:57;;;;;;;4.93;1.38;;;;;;;;;;5085090;28;20248;-45
2023/11/08 04:21:24;;;;;;;4.95;1.00;;;;;;;;;;5085181;28;20028;-43
2023/11/08 04:23:51;;;;;;;4.00;1.10;;;;;;;;;;5084843;28;20228;-42
2023/11/08 04:26:17;;;;;;;5.72;1.38;;;;;;;;;;5084939;28;20023;-42
2023/11/08 04:28:44;;;;;;;4.70;1.30;;;;;;;;;;5084846;28;20070;-47
2023/11/08 04:31:11;;;;;;;5.75;1.15;;;;;;;;;;5084764;28;20032;-48
2023/11/08 04:33:39;;;;;;;5.18;1.45;;;;;;;;;;5084831;28;20084;-43
2023/11/08 04:36:08;;;;;;;4.18;1.08;;;;;;;;;;5084562;28;20035;-42
2023/11/08 04:38:36;;;;;;;5.00;1.00;;;;;;;;;;5084696;28;20040;-48
2023/11/08 04:41:02;;;;;;;3.30;1.05;;;;;;;;;;5084503;28;20017;-44
2023/11/08 04:43:29;;;;;;;4.18;1.33;;;;;;;;;;5084522;28;20077;-45
2023/11/08 04:45:55;;;;;;;2.65;0.95;;;;;;;;;;5092505;28;20028;-47
2023/11/08 04:48:22;;;;;;;5.38;1.20;;;;;;;;;;5104517;28;20031;-44
2023/11/08 04:50:49;;;;;;;4.28;1.30;;;;;;;;;;5104488;28;20051;-48
2023/11/08 04:53:16;;;;;;;8.35;1.27;;;;;;;;;;5104641;28;20028;-50
2023/11/08 04:55:42;;;;;;;3.88;1.20;;;;;;;;;;5104146;28;20487;-51
2023/11/08 04:58:09;;;;;;;6.20;1.20;;;;;;;;;;5103868;28;20028;-45
2023/11/08 05:00:35;;;;;;;6.35;1.05;;;;;;;;;;5103409;28;20036;-43
2023/11/08 05:03:02;;;;;;;4.60;1.23;;;;;;;;;;5095314;28;20020;-49
2023/11/08 05:05:29;;;;;;;2.90;1.10;;;;;;;;;;5084109;28;20020;-45
2023/11/08 05:07:55;;;;;;;2.80;1.20;;;;;;;;;;5084223;28;20224;-48
2023/11/08 05:10:22;;;;;;;4.28;1.30;;;;;;;;;;5084282;28;20084;-43
2023/11/08 05:12:49;;;;;;;4.60;1.10;;;;;;;;;;5084002;28;20024;-48
2023/11/08 05:15:15;;;;;;;3.90;1.20;;;;;;;;;;5084628;28;20063;-43
2023/11/08 05:17:43;;;;;;;7.63;1.30;;;;;;;;;;5084268;28;20028;-53
2023/11/08 05:20:14;;;;;;;3.97;1.10;;;;;;;;;;5084301;28;20033;-45
2023/11/08 05:22:41;;;;;;;3.93;1.23;;;;;;;;;;5084010;28;20235;-51
2023/11/08 05:25:08;;;;;;;4.47;1.15;;;;;;;;;;5084453;28;20327;-43
2023/11/08 05:27:35;;;;;;;4.93;1.05;;;;;;;;;;5083874;28;20114;-43
2023/11/08 05:30:04;;;;;;;4.45;1.00;;;;;;;;;;5084437;28;20041;-45
2023/11/08 05:32:31;;;;;;;4.50;1.10;;;;;;;;;;5083878;28;20030;-49
2023/11/08 05:34:58;;;;;;;2.83;1.20;;;;;;;;;;5084220;28;20059;-44
2023/11/08 05:37:24;;;;;;;3.88;1.02;;;;;;;;;;5084012;28;20056;-44
2023/11/08 05:39:53;;;;;;;3.67;0.80;;;;;;;;;;5084057;28;20094;-43
2023/11/08 05:42:22;;;;;;;5.07;1.02;;;;;;;;;;5083675;28;20088;-44
2023/11/08 05:44:54;;;;;;;1.35;1.02;;;;;;;;;;5084175;28;20059;-45
2023/11/08 05:47:22;;;;;;;3.25;0.95;;;;;;;;;;5083746;28;20047;-52
2023/11/08 05:49:49;;;;;;;1.92;0.90;;;;;;;;;;5083600;28;20112;-44
2023/11/08 05:52:17;;;;;;;6.03;1.05;;;;;;;;;;5083709;28;20016;-46
2023/11/08 05:54:43;;;;;;;2.38;1.08;;;;;;;;;;5083711;28;20162;-46
2023/11/08 05:57:10;;;;;;;5.70;1.08;;;;;;;;;;5083505;28;20312;-43
2023/11/08 05:59:37;;;;;;;4.35;1.00;;;;;;;;;;5084026;28;20193;-46
2023/11/08 06:02:04;;;;;;;7.97;1.33;;;;;;;;;;5087365;28;20028;-44
2023/11/08 06:04:32;;;;;;;7.50;1.05;;;;;;;;;;5087900;28;20037;-50
2023/11/08 06:06:58;;;;;;;6.28;1.10;;;;;;;;;;5087589;28;20016;-49
2023/11/08 06:09:25;;;;;;;3.97;1.08;;;;;;;;;;5087917;28;20086;-50
2023/11/08 06:11:51;;;;;;;2.78;1.00;;;;;;;;;;5087395;28;20037;-46
2023/11/08 06:14:18;;;;;;;4.10;0.90;;;;;;;;;;5087840;28;20030;-49
2023/11/08 06:16:45;;;;;;;6.80;1.15;;;;;;;;;;5087426;28;20047;-49
2023/11/08 06:19:11;;;;;;;6.82;1.30;;;;;;;;;;5087341;28;20308;-47
2023/11/08 06:21:38;;;;;;;3.70;1.30;;;;;;;;;;5087256;28;20040;-50
2023/11/08 06:24:05;;;;;;;5.35;1.20;;;;;;;;;;5087410;28;20177;-47
2023/11/08 06:26:31;;;;;;;12.60;1.35;;;;;;;;;;5086985;28;20323;-44
2023/11/08 06:28:58;;;;;;;4.75;1.10;;;;;;;;;;5087318;28;20020;-46
2023/11/08 06:31:25;;;;;;;5.57;1.27;;;;;;;;;;5087164;28;20202;-52
2023/11/08 06:33:52;;;;;;;3.60;1.10;;;;;;;;;;5087063;28;20032;-49
2023/11/08 06:36:18;;;;;;;5.13;1.23;;;;;;;;;;5087101;28;20040;-48
2023/11/08 06:38:45;;;;;;;5.63;1.30;;;;;;;;;;5086992;28;20028;-46
2023/11/08 06:41:11;;;;;;;5.57;1.00;;;;;;;;;;5086728;28;20032;-43
2023/11/08 06:43:38;;;;;;;2.53;0.90;;;;;;;;;;5087019;28;20024;-47
2023/11/08 06:46:05;;;;;;;3.60;1.02;;;;;;;;;;5086921;28;20062;-45
2023/11/08 06:48:31;;;;;;;9.63;1.35;;;;;;;;;;5086927;28;20040;-47
2023/11/08 06:50:58;;;;;;;10.27;1.48;;;;;;;;;;5086596;28;20067;-45
2023/11/08 06:53:25;;;;;;;9.82;1.60;;;;;;;;;;5086972;28;20074;-55
2023/11/08 06:55:51;;;;;;;10.93;1.58;;;;;;;;;;5086669;28;20043;-45
2023/11/08 06:58:18;;;;;;;16.13;1.67;;;;;;;;;;5086466;28;20086;-51
2023/11/08 07:00:44;;;;;;;11.43;1.80;;;;;;;;;;5086708;28;20335;-44
2023/11/08 07:03:11;;;;;;;9.93;1.45;;;;;;;;;;5086514;28;20028;-51
2023/11/08 07:05:38;;;;;;;6.20;1.77;;;;;;;;;;5086350;28;20016;-53
2023/11/08 07:08:04;;;;;;;11.73;2.05;;;;;;;;;;5086411;28;20029;-49
2023/11/08 07:10:31;;;;;;;15.43;2.22;;;;;;;;;;5086481;28;20028;-47
2023/11/08 07:12:58;;;;;;;11.77;2.45;;;;;;;;;;5085700;28;20024;-52
2023/11/08 07:15:26;;;;;;;14.18;2.28;;;;;;;;;;5086530;28;20024;-50
2023/11/08 07:17:53;;;;;;;12.63;2.30;;;;;;;;;;5086134;28;20220;-49
2023/11/08 07:20:19;;;;;;;10.63;1.80;;;;;;;;;;5086034;28;20315;-45
2023/11/08 07:22:46;;;;;;;8.95;1.70;;;;;;;;;;5086276;28;20052;-46
2023/11/08 07:25:14;;;;;;;5.80;1.80;;;;;;;;;;5086601;28;20052;-46
2023/11/08 07:27:41;;;;;;;5.65;1.42;;;;;;;;;;5085974;28;20044;-46
2023/11/08 07:30:11;;;;;;;9.90;1.80;;;;;;;;;;5086795;28;20032;-47
2023/11/08 07:32:38;;;;;;;11.10;2.03;;;;;;;;;;5085979;28;20259;-51
2023/11/08 07:35:05;;;;;;;6.63;1.70;;;;;;;;;;5086256;28;20031;-45
2023/11/08 07:37:33;;;;;;;6.57;1.83;;;;;;;;;;5085982;28;20028;-47
2023/11/08 07:40:00;;;;;;;4.85;1.38;;;;;;;;;;5085619;28;20223;-46
2023/11/08 07:42:27;;;;;;;5.25;1.60;;;;;;;;;;5085694;28;20020;-51
2023/11/08 07:44:54;;;;;;;7.72;1.60;;;;;;;;;;5086148;28;20038;-44
2023/11/08 07:47:21;;;;;;;6.43;1.63;;;;;;;;;;5085691;28;20020;-44
2023/11/08 07:49:47;;;;;;;4.63;1.50;;;;;;;;;;5085517;28;20147;-43
2023/11/08 07:52:14;;;;;;;6.30;1.77;;;;;;;;;;5085658;28;20036;-47
2023/11/08 07:54:40;;;;;;;5.22;1.48;;;;;;;;;;5086002;28;20048;-49
2023/11/08 07:57:07;;;;;;;4.03;1.40;;;;;;;;;;5085357;28;20208;-50
2023/11/08 07:59:34;;;;;;;6.05;1.40;;;;;;;;;;5085779;28;20044;-51
2023/11/08 08:02:01;;;;;;;7.63;1.45;;;;;;;;;;5085357;28;20057;-53
2023/11/08 08:04:27;;;;;;;4.32;1.30;;;;;;;;;;5085543;28;20040;-44
2023/11/08 08:06:54;;;;;;;7.03;1.60;;;;;;;;;;5085329;28;20087;-50
2023/11/08 08:09:21;;;;;;;5.82;1.52;;;;;;;;;;5085527;28;20340;-48
2023/11/08 08:11:48;;;;;;;3.72;1.48;;;;;;;;;;5085370;28;20313;-46
2023/11/08 08:14:15;;;;;;;5.05;1.45;;;;;;;;;;5085350;28;20308;-49
2023/11/08 08:16:42;;;;;;;5.03;1.63;;;;;;;;;;5085119;28;20024;-48
2023/11/08 08:19:08;;;;;;;4.28;1.35;;;;;;;;;;5085045;28;20025;-47
2023/11/08 08:21:35;;;;;;;5.60;1.33;;;;;;;;;;5085098;28;20336;-48
2023/11/08 08:24:02;;;;;;;4.18;1.45;;;;;;;;;;5084155;28;20032;-47
2023/11/08 08:26:29;;;;;;;7.32;1.60;;;;;;;;;;5084725;28;20054;-46
2023/11/08 08:28:56;;;;;;;6.43;1.70;;;;;;;;;;5085153;28;20039;-50
2023/11/08 08:31:23;;;;;;;3.55;1.30;;;;;;;;;;5085414;28;20147;-55
2023/11/08 08:33:50;;;;;;;5.07;1.25;;;;;;;;;;5084729;28;20031;-47
2023/11/08 08:36:17;;;;;;;5.32;1.33;;;;;;;;;;5085025;28;20332;-43
2023/11/08 08:38:44;;;;;;;6.07;1.55;;;;;;;;;;5087137;28;20336;-47
2023/11/08 08:41:11;;;;;;;4.40;1.50;;;;;;;;;;5093384;28;20021;-43
2023/11/08 08:43:37;;;;;;;5.43;1.80;;;;;;;;;;5084750;28;20324;-43
2023/11/08 08:46:05;;;;;;;6.82;1.70;;;;;;;;;;5084531;28;20096;-42
2023/11/08 08:48:31;;;;;;;5.57;2.25;;;;;;;;;;5084418;28;20055;-45
2023/11/08 08:50:58;;;;;;;4.93;1.95;;;;;;;;;;5084450;28;20452;-49
2023/11/08 08:53:24;;;;;;;7.20;2.20;;;;;;;;;;5084568;28;20032;-42
2023/11/08 08:55:51;;;;;;;9.52;2.35;;;;;;;;;;5084383;28;20030;-43
2023/11/08 08:58:18;;;;;;;8.40;2.47;;;;;;;;;;5084238;28;20045;-47
2023/11/08 09:00:44;;;;;;;6.18;2.40;;;;;;;;;;5084415;28;20039;-44
2023/11/08 09:03:11;;;;;;;5.13;2.03;;;;;;;;;;5084229;28;20043;-49
2023/11/08 09:05:38;;;;;;;5.68;2.60;;;;;;;;;;5084134;28;20208;-44
2023/11/08 09:08:04;;;;;;;5.18;2.40;;;;;;;;;;5084340;28;20094;-46
2023/11/08 09:10:31;;;;;;;5.07;2.33;;;;;;;;;;5084217;28;20024;-43
2023/11/08 09:12:58;;;;;;;6.70;2.40;;;;;;;;;;5083996;28;20265;-43
2023/11/08 09:15:24;;;;;;;4.35;2.33;;;;;;;;;;5084046;28;20033;-44
2023/11/08 09:17:51;;;;;;;5.43;2.22;;;;;;;;;;5084043;28;20044;-50
2023/11/08 09:20:17;;;;;;;3.95;1.98;;;;;;;;;;5084381;28;20029;-42
2023/11/08 09:22:45;;;;;;;4.15;1.98;;;;;;;;;;5084073;28;20035;-46
2023/11/08 09:25:13;;;;;;;6.47;1.73;;;;;;;;;;5084445;28;20071;-44
2023/11/08 09:27:39;;;;;;;4.40;1.95;;;;;;;;;;5083827;28;20028;-44
2023/11/08 09:30:07;;;;;;;5.28;2.05;;;;;;;;;;5084420;28;20056;-44
2023/11/08 09:32:33;;;;;;;5.70;1.95;;;;;;;;;;5082696;28;20093;-44
2023/11/08 09:35:01;;;;;;;3.47;2.03;;;;;;;;;;5083963;28;20039;-43
2023/11/08 09:37:27;;;;;;;11.18;2.10;;;;;;;;;;5083837;28;20029;-49
2023/11/08 09:39:56;;;;;;;6.80;2.25;;;;;;;;;;5084175;28;20073;-44
2023/11/08 09:42:26;;;;;;;4.45;1.90;;;;;;;;;;5083963;28;20228;-44
2023/11/08 09:44:53;;;;;;;8.32;1.90;;;;;;;;;;5084216;28;20083;-44
2023/11/08 09:47:19;;;;;;;4.25;1.67;;;;;;;;;;5084031;28;20104;-43
2023/11/08 09:49:52;;;;;;;3.97;1.80;;;;;;;;;;5083600;28;20052;-43
2023/11/08 09:52:19;;;;;;;2.80;1.80;;;;;;;;;;5083681;28;20025;-44
2023/11/08 09:54:45;;;;;;;7.20;1.88;;;;;;;;;;5084073;28;20024;-43
2023/11/08 09:57:14;;;;;;;6.15;1.67;;;;;;;;;;5083582;28;20036;-46
2023/11/08 09:59:41;;;;;;;9.57;1.95;;;;;;;;;;5083908;28;20044;-47
2023/11/08 10:02:11;;;;;;;3.47;1.63;;;;;;;;;;5083596;28;20092;-49
2023/11/08 10:04:41;;;;;;;9.20;1.92;;;;;;;;;;5083909;28;20037;-43
2023/11/08 10:07:08;;;;;;;6.90;1.67;;;;;;;;;;5083561;28;20051;-43
2023/11/08 10:09:36;;;;;;;7.03;1.83;;;;;;;;;;5083376;28;20096;-45
2023/11/08 10:12:05;;;;;;;6.70;1.52;;;;;;;;;;5083453;28;20080;-43
2023/11/08 10:14:32;;;;;;;5.40;1.50;;;;;;;;;;5083874;28;20036;-46
2023/11/08 10:16:59;;;;;;;7.22;1.48;;;;;;;;;;5083294;28;20324;-44
2023/11/08 10:19:51;;;;;;;6.15;1.60;;;;;;;;;;5083864;28;20033;-44
2023/11/08 10:22:22;;;;;;;5.95;1.40;;;;;;;;;;5083843;28;20070;-44
2023/11/08 10:25:00;;;;;;;7.85;1.80;;;;;;;;;;5085928;28;20021;-43
2023/11/08 10:27:27;;;;;;;4.82;1.10;;;;;;;;;;5092208;28;20064;-51
2023/11/08 10:30:12;;;;;;;7.18;1.70;;;;;;;;;;5083791;28;20090;-44
2023/11/08 10:32:39;;;;;;;9.32;1.52;;;;;;;;;;5083313;28;20380;-45
2023/11/08 10:35:22;;;;;;;11.27;2.05;;;;;;;;;;5083633;28;20029;-46
2023/11/08 10:37:49;;;;;;;7.68;2.10;;;;;;;;;;5085749;28;20028;-44
2023/11/08 10:40:21;;;;;;;8.82;2.25;;;;;;;;;;5103760;28;20042;-44
2023/11/08 10:42:51;;;;;;;7.00;2.00;;;;;;;;;;5103573;28;20034;-48
2023/11/08 10:45:21;;;;;;;9.68;2.30;;;;;;;;;;5104037;28;20043;-46
2023/11/08 10:47:48;;;;;;;9.88;2.67;;;;;;;;;;5106510;28;20036;-43
2023/11/08 10:50:16;;;;;;;15.20;2.67;;;;;;;;;;5107168;28;20068;-44
2023/11/08 10:52:43;;;;;;;10.63;2.45;;;;;;;;;;5107105;28;20036;-50
2023/11/08 10:55:11;;;;;;;12.73;2.50;;;;;;;;;;5107008;28;20051;-47
2023/11/08 10:57:41;;;;;;;10.00;2.33;;;;;;;;;;5107039;28;20024;-43
2023/11/08 11:00:09;;;;;;;9.70;2.30;;;;;;;;;;5107212;28;20193;-44
2023/11/08 11:02:54;;;;;;;10.90;2.60;;;;;;;;;;5105571;28;20137;-43
2023/11/08 11:05:22;;;;;;;8.07;4.68;;;;;;;;;;5095841;28;20094;-46
2023/11/08 11:07:49;;;;;;;13.05;4.88;;;;;;;;;;5096287;28;20066;-45
2023/11/08 11:10:17;;;;;;;13.23;5.00;;;;;;;;;;5105313;28;20032;-45
2023/11/08 11:13:03;;;;;;;12.70;6.75;;;;;;;;;;5100290;28;20032;-43
2023/11/08 11:15:49;;;;;;;10.38;4.30;;;;;;;;;;5105185;28;20068;-42
2023/11/08 11:18:21;;;;;;;9.00;2.88;;;;;;;;;;5106516;28;20036;-45
2023/11/08 11:20:54;;;;;;;7.63;2.97;;;;;;;;;;5106996;28;20036;-47
2023/11/08 11:23:30;;;;;;;7.97;3.45;;;;;;;;;;5106403;28;20028;-45
2023/11/08 11:25:57;;;;;;;11.35;3.65;;;;;;;;;;5106573;28;20062;-43
2023/11/08 11:28:42;;;;;;;8.75;3.15;;;;;;;;;;5105076;28;20032;-43
2023/11/08 11:31:26;;;;;;;8.10;3.42;;;;;;;;;;5105083;28;20028;-43
2023/11/08 11:33:53;;;;;;;46.65;5.30;;;;;;;;;;5105425;28;20020;-43
2023/11/08 11:36:20;;;;;;;11.05;4.35;;;;;;;;;;5106246;28;20118;-46
2023/11/08 11:38:46;;;;;;;8.18;3.80;;;;;;;;;;5106308;28;20028;-44
2023/11/08 11:41:23;;;;;;;13.88;5.05;;;;;;;;;;5105957;28;20028;-45
2023/11/08 11:43:53;;;;;;;12.98;4.30;;;;;;;;;;5105562;28;20060;-44
2023/11/08 11:46:22;;;;;;;9.55;3.72;;;;;;;;;;5106047;28;20016;-44
2023/11/08 11:49:03;;;;;;;7.00;3.38;;;;;;;;;;5104859;28;20028;-44
2023/11/08 11:51:30;;;;;;;9.13;3.53;;;;;;;;;;5104122;28;20031;-49
2023/11/08 11:53:56;;;;;;;8.70;3.28;;;;;;;;;;5104191;28;20028;-44
2023/11/08 11:56:23;;;;;;;5.40;2.90;;;;;;;;;;5104096;28;20261;-43
2023/11/08 11:58:50;;;;;;;5.13;2.50;;;;;;;;;;5103832;28;20040;-48
2023/11/08 12:01:19;;;;;;;3.88;2.47;;;;;;;;;;5103791;28;20228;-50
2023/11/08 12:03:46;;;;;;;7.00;2.95;;;;;;;;;;5104785;28;20083;-45
2023/11/08 12:06:13;;;;;;;5.38;2.90;;;;;;;;;;5105632;28;20035;-45
2023/11/08 12:08:39;;;;;;;12.85;3.63;;;;;;;;;;5105597;28;20039;-44
2023/11/08 12:11:16;;;;;;;11.40;3.60;;;;;;;;;;5105593;28;20020;-43
2023/11/08 12:13:46;;;;;;;12.65;3.55;;;;;;;;;;5105669;28;20258;-49
2023/11/08 12:16:13;;;;;;;10.15;3.53;;;;;;;;;;5105467;28;20370;-45
2023/11/08 12:18:40;;;;;;;10.20;3.30;;;;;;;;;;5105531;28;20093;-42
2023/11/08 12:21:09;;;;;;;14.93;3.55;;;;;;;;;;5105248;28;20024;-41
2023/11/08 12:23:36;;;;;;;11.80;3.10;;;;;;;;;;5105356;28;20032;-44
2023/11/08 12:26:03;;;;;;;7.78;2.60;;;;;;;;;;5105256;28;20020;-42
2023/11/08 12:28:30;;;;;;;6.85;2.47;;;;;;;;;;5105218;28;20034;-52
2023/11/08 12:31:07;;;;;;;12.82;2.88;;;;;;;;;;5105170;28;20217;-42
2023/11/08 12:33:34;;;;;;;8.85;2.80;;;;;;;;;;5105302;28;20024;-43
2023/11/08 12:36:02;;;;;;;9.70;2.80;;;;;;;;;;5104976;28;20098;-41
2023/11/08 12:38:29;;;;;;;7.95;2.80;;;;;;;;;;5105072;28;20024;-42
2023/11/08 12:41:02;;;;;;;10.77;2.92;;;;;;;;;;5105056;28;20039;-41
2023/11/08 12:43:29;;;;;;;7.45;2.80;;;;;;;;;;5104885;28;20035;-41
2023/11/08 12:46:03;;;;;;;9.38;2.95;;;;;;;;;;5105221;28;20043;-44
2023/11/08 12:48:30;;;;;;;7.38;2.53;;;;;;;;;;5104864;28;20069;-45
2023/11/08 12:51:02;;;;;;;5.03;2.20;;;;;;;;;;5104828;28;20067;-44
2023/11/08 12:53:31;;;;;;;;;;;;;;;;;;5105255;28;20216;-47
2023/11/08 12:55:59;;;;;;;8.40;2.60;;;;;;;;;;5104701;28;19906;-47
2023/11/08 12:58:27;;;;;;;7.55;2.53;;;;;;;;;;5104818;28;20039;-43
2023/11/08 13:00:54;;;;;;;5.60;2.35;;;;;;;;;;5104653;28;20012;-42
2023/11/08 13:03:25;;;;;;;6.55;2.78;;;;;;;;;;5104589;28;20024;-51
2023/11/08 13:05:53;;;;;;;8.32;2.70;;;;;;;;;;5104637;28;20024;-42
2023/11/08 13:08:23;;;;;;;5.07;2.03;;;;;;;;;;5104564;28;20224;-45
2023/11/08 13:10:52;;;;;;;7.68;2.17;;;;;;;;;;5103919;28;20338;-45
2023/11/08 13:13:19;;;;;;;2.75;1.88;;;;;;;;;;5104481;28;20032;-49
2023/11/08 13:15:52;;;;;;;2.60;1.88;;;;;;;;;;5104501;28;20020;-47
2023/11/08 13:18:19;;;;;;;4.80;2.25;;;;;;;;;;5104404;28;20039;-43
2023/11/08 13:20:46;;;;;;;3.95;1.90;;;;;;;;;;5104284;28;20039;-47
2023/11/08 13:23:13;;;;;;;3.28;2.00;;;;;;;;;;5104162;28;20040;-45
2023/11/08 13:25:39;;;;;;;3.83;1.90;;;;;;;;;;5104539;28;20032;-41
2023/11/08 13:28:06;;;;;;;3.30;1.70;;;;;;;;;;5104256;28;20220;-43
2023/11/08 13:30:34;;;;;;;4.38;1.63;;;;;;;;;;5104178;28;20081;-43
2023/11/08 13:33:04;;;;;;;2.65;1.85;;;;;;;;;;5104071;28;20264;-42
2023/11/08 13:35:31;;;;;;;1.60;1.48;;;;;;;;;;5104141;28;20043;-47
2023/11/08 13:37:57;;;;;;;3.45;1.73;;;;;;;;;;5104000;28;20043;-43
2023/11/08 13:40:26;;;;;;;4.18;1.60;;;;;;;;;;5104283;28;20046;-41
2023/11/08 13:42:54;;;;;;;3.78;1.50;;;;;;;;;;5104099;28;20271;-44
2023/11/08 13:45:22;;;;;;;4.60;1.67;;;;;;;;;;5104176;28;20048;-41
2023/11/08 13:47:49;;;;;;;2.00;1.40;;;;;;;;;;5104045;28;20021;-41
2023/11/08 13:50:17;;;;;;;3.30;1.35;;;;;;;;;;5103966;28;20344;-42
2023/11/08 13:52:44;;;;;;;1.83;1.55;;;;;;;;;;5103863;28;20312;-41
2023/11/08 13:55:12;;;;;;;3.20;1.40;;;;;;;;;;5104505;28;20034;-46
2023/11/08 13:57:39;;;;;;;1.95;1.50;;;;;;;;;;5103993;28;20036;-42
2023/11/08 14:00:06;;;;;;;1.60;1.42;;;;;;;;;;5104116;28;20331;-42
2023/11/08 14:02:37;;;;;;;3.90;1.48;;;;;;;;;;5104003;28;20020;-42
2023/11/08 14:05:03;;;;;;;6.63;1.70;;;;;;;;;;5104312;28;20025;-42
2023/11/08 14:07:31;;;;;;;4.07;1.60;;;;;;;;;;5103733;28;20329;-48
2023/11/08 14:09:58;;;;;;;1.85;1.40;;;;;;;;;;5104219;28;20024;-41
2023/11/08 14:12:27;;;;;;;2.80;1.48;;;;;;;;;;5103813;28;20032;-42
2023/11/08 14:14:53;;;;;;;2.40;1.60;;;;;;;;;;5104049;28;20032;-42
2023/11/08 14:17:21;;;;;;;2.40;1.60;;;;;;;;;;5103757;28;20028;-45
2023/11/08 14:19:54;;;;;;;5.20;1.60;;;;;;;;;;5103960;28;20040;-42
2023/11/08 14:22:22;;;;;;;4.95;1.73;;;;;;;;;;5105961;28;20050;-42
2023/11/08 14:24:49;;;;;;;2.60;1.60;;;;;;;;;;5107946;28;20035;-45
2023/11/08 14:27:16;;;;;;;3.75;1.80;;;;;;;;;;5107578;28;20039;-42
2023/11/08 14:29:43;;;;;;;1.95;1.65;;;;;;;;;;5107792;28;20029;-47
2023/11/08 14:32:09;;;;;;;4.57;1.67;;;;;;;;;;5107513;28;20081;-41
2023/11/08 14:34:38;;;;;;;1.70;1.60;;;;;;;;;;5107817;28;20044;-41
2023/11/08 14:37:07;;;;;;;2.92;1.60;;;;;;;;;;5107149;28;20212;-41
2023/11/08 14:39:34;;;;;;;3.28;1.70;;;;;;;;;;5107757;28;20090;-41
2023/11/08 14:42:03;;;;;;;2.25;1.30;;;;;;;;;;5107302;28;20316;-42
2023/11/08 14:44:30;;;;;;;2.25;1.55;;;;;;;;;;5107373;28;20095;-45